Mount Vernon, AL (36560)

1:22 PM CDT on September 02, 2015 (GMT -0500)
York Hill Gulfcrest, Alabama | | Change Station
CLOSE
Current Station
Personal Weather Station
Location: Chunchula, AL
Elevation: 190 ft
Nearby Weather Stations

Elev 190 ft 30.99 °N, 88.24 °W | Updated 4 minutes ago

Partly Cloudy
Partly Cloudy
102.2 °F
Feels Like 113 °F
N
2.2
Wind Variable Wind from ESE

Today
High -- | Low -- °F
--% Chance of Precip.
Yesterday
High -- | Low -- °F
Precip. -- in
6:28 AM 7:14 PM
Waning Gibbous, 78% visible
Pressure 30.06 in
Visibility 10.0 miles
Clouds Scattered Clouds 5000 ft
Mostly Cloudy 15000 ft
Mostly Cloudy 25000 ft
Heat Index 113 °F
Dew Point 72 °F
Humidity 38%
Rainfall 0.00 in
Snow Depth Not available.
UV 6 out of 12
Pollen 8.50 out of 12
Air Quality Not available.
Flu Activity Not available.
METAR KMOB 021756Z 18007KT 10SM SCT050 BKN150 BKN250 32/19 A3007 RMK AO2 SLP179 T03220194 10333 20222 58008
Pressure 30.06 in
Visibility 10.0 miles
Clouds Scattered Clouds 5000 ft
Mostly Cloudy 15000 ft
Mostly Cloudy 25000 ft
Heat Index 113 °F
Dew Point 72 °F
Humidity 38%
Rainfall 0.00 in
Snow Depth Not available.
UV 6 out of 12
Pollen 8.50 out of 12
Air Quality Not available.
Flu Activity Not available.
METAR KMOB 021756Z 18007KT 10SM SCT050 BKN150 BKN250 32/19 A3007 RMK AO2 SLP179 T03220194 10333 20222 58008

10-Day Weather Forecast

×

Almanac

Astronomy

Sep. 02, 2015 Rise Set
Actual Time
Civil Twilight
Nautical Twilight
Astronomical Twilight
Moon
Length of Visible Light
Length of Day
Tomorrow will be .
, % of the Moon is Illuminated

Today's Extremes

State Highs State Lows

Community

WunderPhotos

Upload Photos

1,851,791 photos uploaded!

WunderBlogs® & News

Nearby

Air Quality

  Air Quality AQ Index Pollutant
Not available.

Snow Depth

Station Depth Elevation

Earthquake Activity

City Distance Mag. Time & Date
Minimum magnitude displayed is 2.5.

Coastal Water Temperatures

Place Temperature

Stations

Nearby Weather Stations

Station Location Temp. Windchill Dew Point Humidity Wind Precip. Elev Updated Type